INFORMACIÓN METAR y TAF
METAR FOR LESO
ADDS - METARS form results

(0109 UTC 19 June 2019)
Data provider http://aviationweather.gov/metar/data/
 
METAR text: LESO 190100Z AUTO 19001KT 6000 FEW005 17/15 Q1012
Conditions at: LESO (SAN SEBASTIAN/FU, ES) observed 0100 UTC 19 June 2019
Temperature: 17.0°C (63°F)
Dewpoint: 15.0°C (59°F) [RH = 88%]
Pressure (altimeter): 29.88 inches Hg (1012.0 mb)
Winds: from the S (190 degrees) at 1 MPH (1 knots; 0.5 m/s)
Visibility: 4 miles ( 6 km)
Ceiling: at least 12,000 feet AGL
Clouds: few clouds at 500 feet AGL
Weather: no significant weather observed at this time

METAR text: LESO 190030Z AUTO VRB01KT 6000 NCD 17/15 Q1012
Conditions at: LESO (SAN SEBASTIAN/FU, ES) observed 0030 UTC 19 June 2019
Temperature: 17.0°C (63°F)
Dewpoint: 15.0°C (59°F) [RH = 88%]
Pressure (altimeter): 29.88 inches Hg (1012.0 mb)
Winds: variable direction winds at 1 MPH (1 knots; 0.5 m/s)
Visibility: 4 miles ( 6 km)
Ceiling: at least 12,000 feet AGL
Clouds: sky clear below 12,000 feet AGL
Weather: no significant weather observed at this time

Forecast for: LESO (SAN SEBASTIAN/FU, ES)
Text: TAF LESO 182300Z 1900/1924 VRB05KT 9999 FEW010 TX25/1909Z TN15/1902Z
Forecast period: 0000 UTC 19 June 2019 to 0000 UTC 20 June 2019
Forecast type: FROM: standard forecast or significant change
Winds: variable direction winds at 6 MPH (5 knots; 2.6 m/s)
Visibility: 6 or more miles 10+ km)
Ceiling: at least 12,000 feet AGL
Clouds: few clouds at 1000 feet AGL
Weather: no significant weather forecast for this period

 MAPA DE AEROPUERTO

 INFORMACIÓN DE PISTA
Pista 04 Longitud 5755 ft Ancho 148 ft
Elevación 10 ft Umbral desplazado 0 ft Rumbo de pista 39
Pista 22 Longitud 5755 ft Ancho 148 ft
Elevación 15 ft Umbral desplazado 0 ft Rumbo de pista 219

 FRECUANCIAS DEL AEROPUERTO
Tipo TWR Nombre SAN SEBAST Frecuencia 119.85 MHZ

 RADIO AYUDAS DEL AEROPUERTO
Tipo NDB-DME Nombre San Sebastian Frecuencia 328 KHZ
Tipo VOR-DME Nombre San Sebastian Frecuencia 117900 KHZ



              


PayPal

©2019 Oasis Virtual Airlines
Simulando desde el 2013

Oasis Líneas Aéreas Virtuales no está relacionada con ninguna compañía real.
Se trata de un entorno virtual de simulación aérea, sin ánimo de lucro.


Visitas:

VAM v2.6.2 [MOD.]